createdAt,value
2018-09-19T00:01:57.037Z,19.00
2018-09-19T00:06:52.310Z,18.80
2018-09-19T00:11:47.528Z,18.60
2018-09-19T00:14:15.154Z,18.40
2018-09-19T00:16:42.871Z,18.50
2018-09-19T00:21:38.030Z,18.50
2018-09-19T00:24:05.694Z,18.50
2018-09-19T00:26:33.362Z,18.60
2018-09-19T00:29:01.039Z,18.60
2018-09-19T00:31:28.748Z,18.60
2018-09-19T00:33:56.438Z,18.70
2018-09-19T00:36:24.360Z,18.80
2018-09-19T00:38:52.330Z,18.80
2018-09-19T00:41:19.983Z,18.80
2018-09-19T00:43:47.883Z,18.80
2018-09-19T00:46:15.484Z,18.80
2018-09-19T00:48:43.133Z,18.70
2018-09-19T00:51:10.728Z,18.70
2018-09-19T00:53:38.341Z,18.60
2018-09-19T00:56:05.956Z,18.60
2018-09-19T00:58:33.573Z,18.60
2018-09-19T01:01:01.271Z,18.60
2018-09-19T01:03:28.848Z,18.60
2018-09-19T01:05:56.475Z,18.50
2018-09-19T01:08:24.102Z,18.50
2018-09-19T01:10:51.730Z,18.50
2018-09-19T01:13:19.334Z,18.50
2018-09-19T01:15:47.014Z,18.60
2018-09-19T01:18:14.610Z,18.50
2018-09-19T01:20:42.250Z,18.60
2018-09-19T01:25:37.427Z,18.50
2018-09-19T01:28:05.054Z,18.50
2018-09-19T01:30:32.715Z,18.40
2018-09-19T01:33:00.359Z,18.30
2018-09-19T01:35:28.046Z,18.40
2018-09-19T01:40:23.251Z,18.50
2018-09-19T01:42:50.855Z,18.50
2018-09-19T01:45:18.493Z,18.50
2018-09-19T01:47:46.141Z,18.50
2018-09-19T01:50:13.847Z,18.40
2018-09-19T01:52:41.477Z,18.40
2018-09-19T01:55:09.139Z,18.50
2018-09-19T01:57:36.821Z,18.60
2018-09-19T02:00:04.545Z,18.60
2018-09-19T02:02:32.220Z,18.60
2018-09-19T02:04:59.815Z,18.70
2018-09-19T02:07:27.426Z,18.70
2018-09-19T02:09:55.060Z,18.70
2018-09-19T02:12:23.360Z,18.60
2018-09-19T02:14:51.011Z,18.70
2018-09-19T02:17:18.685Z,18.80
2018-09-19T02:19:46.363Z,19.00
2018-09-19T02:22:13.995Z,19.10
2018-09-19T02:24:41.631Z,19.20
2018-09-19T02:27:09.285Z,19.20
2018-09-19T02:29:36.957Z,19.30
2018-09-19T02:32:04.763Z,19.30
2018-09-19T02:34:32.391Z,19.30
2018-09-19T02:37:00.019Z,19.30
2018-09-19T02:39:27.660Z,19.30
2018-09-19T02:41:55.243Z,19.20
2018-09-19T02:44:23.741Z,19.30
2018-09-19T02:46:51.352Z,19.30
2018-09-19T02:49:21.450Z,19.20
2018-09-19T02:51:49.345Z,19.30
2018-09-19T02:54:16.946Z,19.20
2018-09-19T02:56:45.517Z,19.10
2018-09-19T02:59:13.245Z,19.00
2018-09-19T03:01:40.926Z,19.00
2018-09-19T03:04:08.530Z,19.10
2018-09-19T03:06:36.162Z,19.10
2018-09-19T03:09:05.751Z,19.10
2018-09-19T03:11:33.396Z,19.10
2018-09-19T03:14:01.031Z,19.10
2018-09-19T03:16:28.712Z,19.10
2018-09-19T03:18:56.331Z,19.00
2018-09-19T03:21:24.042Z,19.00
2018-09-19T03:23:51.657Z,19.00
2018-09-19T03:26:19.286Z,19.10
2018-09-19T03:28:46.913Z,19.10
2018-09-19T03:31:14.543Z,19.10
2018-09-19T03:33:42.180Z,19.10
2018-09-19T03:36:09.817Z,19.10
2018-09-19T03:38:37.443Z,19.10
2018-09-19T03:43:32.593Z,19.10
2018-09-19T03:46:00.227Z,19.10
2018-09-19T03:48:27.850Z,19.00
2018-09-19T03:53:22.995Z,19.00
2018-09-19T03:58:18.194Z,19.00
2018-09-19T04:00:45.781Z,18.90
2018-09-19T04:03:13.404Z,18.90
2018-09-19T04:08:08.576Z,18.70
2018-09-19T04:10:36.226Z,18.80
2018-09-19T04:13:03.862Z,18.70
2018-09-19T04:15:31.509Z,18.60
2018-09-19T04:17:59.160Z,18.60
2018-09-19T04:20:26.754Z,18.60
2018-09-19T04:22:54.376Z,18.60
2018-09-19T04:30:17.027Z,18.60
2018-09-19T04:32:44.656Z,18.60
2018-09-19T04:37:39.902Z,18.40
2018-09-19T04:40:07.613Z,18.40
2018-09-19T04:42:35.246Z,18.40
2018-09-19T04:45:03.089Z,18.30
2018-09-19T04:47:30.617Z,18.30
2018-09-19T04:49:58.262Z,18.30
2018-09-19T04:55:02.336Z,18.20
2018-09-19T04:57:30.051Z,18.00
2018-09-19T05:04:52.835Z,17.40
2018-09-19T05:07:20.511Z,17.40
2018-09-19T05:09:48.122Z,17.30
2018-09-19T05:12:15.817Z,17.30
2018-09-19T05:14:43.433Z,17.10
2018-09-19T05:31:56.413Z,18.10
2018-09-19T05:34:24.068Z,19.50
2018-09-19T05:36:51.697Z,19.10
2018-09-19T05:44:14.417Z,22.30
2018-09-19T05:46:42.047Z,22.30
2018-09-19T05:49:09.754Z,23.30
2018-09-19T05:51:37.396Z,24.30
2018-09-19T05:54:05.095Z,25.40
2018-09-19T05:56:32.719Z,26.10
2018-09-19T05:59:00.435Z,26.20
2018-09-19T06:01:28.079Z,26.70
2018-09-19T06:03:55.695Z,27.60
2018-09-19T06:06:23.350Z,28.40
2018-09-19T06:08:51.016Z,28.90
2018-09-19T06:11:18.615Z,28.90
2018-09-19T06:13:46.248Z,28.20
2018-09-19T06:16:13.889Z,28.80
2018-09-19T06:18:41.558Z,29.30
2018-09-19T06:21:09.170Z,30.40
2018-09-19T06:23:36.787Z,31.50
2018-09-19T06:26:04.402Z,31.80
2018-09-19T06:28:32.016Z,32.40
2018-09-19T06:30:59.610Z,32.70
2018-09-19T06:33:27.327Z,33.20
2018-09-19T06:35:54.918Z,32.50
2018-09-19T06:38:22.533Z,30.50
2018-09-19T06:40:50.239Z,27.90
2018-09-19T06:43:17.758Z,26.80
2018-09-19T06:45:45.459Z,24.90
2018-09-19T06:48:13.010Z,24.90
2018-09-19T06:53:08.190Z,24.60
2018-09-19T06:55:35.786Z,24.00
2018-09-19T06:58:03.383Z,23.90
2018-09-19T07:00:31.016Z,23.90
2018-09-19T07:02:58.638Z,23.80
2018-09-19T07:05:26.260Z,23.50
2018-09-19T07:07:53.858Z,23.50
2018-09-19T07:12:49.034Z,24.90
2018-09-19T07:15:16.655Z,28.70
2018-09-19T07:17:44.303Z,31.40
2018-09-19T07:20:11.899Z,33.20
2018-09-19T07:22:39.586Z,34.00
2018-09-19T07:25:07.260Z,35.30
2018-09-19T07:27:34.862Z,35.50
2018-09-19T07:30:02.519Z,35.90
2018-09-19T07:32:30.149Z,35.60
2018-09-19T07:34:57.796Z,35.90
2018-09-19T07:37:25.457Z,37.80
2018-09-19T07:39:53.098Z,38.80
2018-09-19T07:42:20.791Z,40.00
2018-09-19T07:44:48.382Z,36.60
2018-09-19T07:47:15.970Z,37.90
2018-09-19T07:49:43.588Z,38.70
2018-09-19T07:52:11.198Z,38.50
2018-09-19T07:54:38.952Z,38.50
2018-09-19T07:57:06.678Z,39.90
2018-09-19T07:59:34.382Z,38.70
2018-09-19T08:02:02.196Z,35.90
2018-09-19T08:04:29.830Z,34.80
2018-09-19T08:06:57.459Z,33.50
2018-09-19T08:09:25.181Z,32.60
2018-09-19T08:11:52.821Z,32.00
2018-09-19T08:14:20.456Z,32.00
2018-09-19T08:16:48.119Z,30.30
2018-09-19T08:19:15.778Z,30.30
2018-09-19T08:21:43.435Z,30.60
2018-09-19T08:24:11.144Z,30.60
2018-09-19T08:26:38.776Z,30.50
2018-09-19T08:29:06.510Z,30.40
2018-09-19T08:31:34.133Z,30.50
2018-09-19T08:34:01.799Z,30.40
2018-09-19T08:36:29.478Z,30.40
2018-09-19T08:38:57.230Z,30.00
2018-09-19T08:41:24.896Z,30.10
2018-09-19T08:43:52.936Z,30.10
2018-09-19T08:46:20.624Z,29.80
2018-09-19T08:48:48.290Z,29.60
2018-09-19T08:51:15.931Z,29.50
2018-09-19T08:53:43.570Z,29.50
2018-09-19T08:56:11.211Z,29.50
2018-09-19T08:58:38.881Z,29.50
2018-09-19T09:01:06.580Z,29.20
2018-09-19T09:03:34.223Z,28.90
2018-09-19T09:06:01.867Z,28.40
2018-09-19T09:08:29.497Z,28.40
2018-09-19T09:10:57.260Z,28.40
2018-09-19T09:13:24.873Z,28.40
2018-09-19T09:15:52.478Z,28.50
2018-09-19T09:18:20.132Z,27.90
2018-09-19T09:20:47.760Z,27.90
2018-09-19T09:23:15.376Z,27.70
2018-09-19T09:25:43.184Z,27.90
2018-09-19T09:28:11.007Z,27.90
2018-09-19T09:30:38.621Z,27.60
2018-09-19T09:35:34.232Z,27.70
2018-09-19T09:40:29.573Z,27.90
2018-09-19T09:42:57.192Z,27.90
2018-09-19T09:47:52.436Z,28.00
2018-09-19T09:50:20.112Z,27.80
2018-09-19T09:52:47.675Z,27.80
2018-09-19T09:55:15.550Z,27.90
2018-09-19T09:57:43.308Z,27.80
2018-09-19T10:00:10.963Z,28.00
2018-09-19T10:02:38.582Z,28.00
2018-09-19T10:05:06.271Z,28.20
2018-09-19T10:07:33.902Z,28.20
2018-09-19T10:10:01.602Z,28.30
2018-09-19T10:12:29.261Z,28.40
2018-09-19T10:14:56.889Z,28.50
2018-09-19T10:17:24.518Z,28.30
2018-09-19T10:19:52.223Z,27.90
2018-09-19T10:22:19.873Z,28.00
2018-09-19T10:24:47.493Z,28.10
2018-09-19T10:27:15.134Z,28.10
2018-09-19T10:29:42.853Z,27.90
2018-09-19T10:34:38.014Z,27.90
2018-09-19T10:37:05.647Z,27.60
2018-09-19T10:39:33.265Z,27.50
2018-09-19T10:44:28.499Z,27.30
2018-09-19T10:49:23.656Z,27.40
2018-09-19T10:51:51.548Z,27.10
2018-09-19T10:54:19.317Z,27.30
2018-09-19T10:56:47.025Z,27.00
2018-09-19T10:59:14.662Z,27.10
2018-09-19T11:01:42.370Z,27.00
2018-09-19T11:04:10.487Z,27.00
2018-09-19T11:06:38.211Z,27.00
2018-09-19T11:11:34.882Z,26.80
2018-09-19T11:14:02.818Z,26.80
2018-09-19T11:16:30.937Z,26.80
2018-09-19T11:18:58.805Z,26.90
2018-09-19T11:21:26.467Z,26.80
2018-09-19T11:23:54.159Z,26.80
2018-09-19T11:26:21.838Z,27.00
2018-09-19T11:28:49.414Z,27.00
2018-09-19T11:31:16.997Z,26.90
2018-09-19T11:33:44.652Z,26.80
2018-09-19T11:36:13.090Z,26.70
2018-09-19T11:38:40.719Z,26.60
2018-09-19T11:41:08.822Z,26.50
2018-09-19T11:43:36.615Z,26.50
2018-09-19T11:46:04.243Z,26.80
2018-09-19T11:48:31.906Z,26.80
2018-09-19T11:50:59.744Z,26.90
2018-09-19T11:53:28.486Z,27.00
2018-09-19T11:55:57.527Z,27.10
2018-09-19T11:58:25.398Z,27.10
2018-09-19T12:00:53.260Z,27.20
2018-09-19T12:03:20.983Z,27.20
2018-09-19T12:05:48.708Z,27.20
2018-09-19T12:08:16.519Z,27.20
2018-09-19T12:10:44.594Z,27.10
2018-09-19T12:13:12.422Z,27.20
2018-09-19T12:15:40.323Z,27.30
2018-09-19T12:18:08.247Z,27.40
2018-09-19T12:20:36.178Z,27.30
2018-09-19T12:23:03.923Z,27.30
2018-09-19T12:25:31.747Z,27.30
2018-09-19T12:27:59.451Z,27.20
2018-09-19T12:30:27.145Z,27.30
2018-09-19T12:32:54.899Z,27.20
2018-09-19T12:35:22.544Z,27.30
2018-09-19T12:37:50.219Z,27.40
2018-09-19T12:40:17.924Z,27.50
2018-09-19T12:42:45.541Z,28.10
2018-09-19T12:45:13.239Z,27.40
2018-09-19T12:47:40.933Z,27.50
2018-09-19T12:50:08.569Z,27.50
2018-09-19T12:52:36.197Z,27.50
2018-09-19T12:55:03.868Z,27.50
2018-09-19T12:57:31.539Z,27.40
2018-09-19T12:59:59.171Z,27.40
2018-09-19T13:02:26.823Z,27.40
2018-09-19T13:04:54.466Z,27.40
2018-09-19T13:07:22.108Z,27.40
2018-09-19T13:09:49.746Z,27.20
2018-09-19T13:12:17.406Z,27.30
2018-09-19T13:14:45.081Z,27.30
2018-09-19T13:17:12.775Z,27.30
2018-09-19T13:19:40.423Z,27.30
2018-09-19T13:22:08.226Z,27.30
2018-09-19T13:24:35.967Z,27.40
2018-09-19T13:27:03.741Z,27.50
2018-09-19T13:29:31.370Z,27.60
2018-09-19T13:31:59.147Z,27.70
2018-09-19T13:34:26.800Z,27.90
2018-09-19T13:36:54.422Z,27.90
2018-09-19T13:39:22.347Z,28.00
2018-09-19T13:41:50.103Z,27.90
2018-09-19T13:44:17.773Z,27.80
2018-09-19T13:46:45.474Z,27.80
2018-09-19T13:50:03.575Z,27.80
2018-09-19T13:52:31.255Z,27.90
2018-09-19T13:54:58.875Z,28.00
2018-09-19T13:57:26.510Z,28.00
2018-09-19T13:59:54.171Z,28.10
2018-09-19T14:02:21.846Z,28.00
2018-09-19T14:04:49.476Z,28.00
2018-09-19T14:07:17.124Z,27.80
2018-09-19T14:09:44.741Z,27.80
2018-09-19T14:12:12.437Z,27.90
2018-09-19T14:14:40.059Z,27.80
2018-09-19T14:17:07.705Z,27.90
2018-09-19T14:19:35.370Z,28.10
2018-09-19T14:22:03.027Z,28.00
2018-09-19T14:24:30.643Z,28.00
2018-09-19T14:26:58.346Z,28.00
2018-09-19T14:29:26.071Z,28.10
2018-09-19T14:31:53.759Z,28.00
2018-09-19T14:34:21.471Z,28.10
2018-09-19T14:36:49.091Z,28.00
2018-09-19T14:39:16.754Z,27.90
2018-09-19T14:41:44.411Z,28.00
2018-09-19T14:44:12.046Z,27.80
2018-09-19T14:46:39.700Z,27.80
2018-09-19T14:49:07.327Z,27.90
2018-09-19T14:51:35.076Z,28.00
2018-09-19T14:54:02.724Z,28.20
2018-09-19T14:56:30.350Z,28.20
2018-09-19T14:58:57.991Z,28.10
2018-09-19T15:01:25.611Z,28.10
2018-09-19T15:03:53.220Z,27.90
2018-09-19T15:06:20.854Z,27.80
2018-09-19T15:08:48.479Z,28.00
2018-09-19T15:13:43.689Z,27.70
2018-09-19T15:18:38.851Z,27.80
2018-09-19T15:21:06.518Z,27.70
2018-09-19T15:28:29.275Z,27.60
2018-09-19T15:30:56.867Z,27.60
2018-09-19T15:35:52.050Z,27.30
2018-09-19T15:38:19.809Z,27.30
2018-09-19T15:40:47.427Z,27.40
2018-09-19T15:43:15.067Z,27.40
2018-09-19T15:45:42.706Z,27.40
2018-09-19T15:48:10.369Z,27.40
2018-09-19T15:50:38.185Z,27.50
2018-09-19T15:53:05.862Z,27.50
2018-09-19T15:55:33.588Z,27.40
2018-09-19T15:58:01.294Z,27.30
2018-09-19T16:00:29.000Z,27.30
2018-09-19T16:02:56.635Z,27.20
2018-09-19T16:05:24.308Z,27.10
2018-09-19T16:07:51.950Z,27.00
2018-09-19T16:10:19.686Z,27.00
2018-09-19T16:12:47.323Z,27.00
2018-09-19T16:20:10.168Z,26.80
2018-09-19T16:22:37.911Z,26.70
2018-09-19T16:25:05.696Z,26.60
2018-09-19T16:27:33.446Z,26.60
2018-09-19T16:30:01.051Z,26.60
2018-09-19T16:32:28.666Z,26.60
2018-09-19T16:34:56.283Z,26.40
2018-09-19T16:39:51.445Z,26.40
2018-09-19T16:44:46.700Z,26.30
2018-09-19T16:52:09.460Z,26.10
2018-09-19T16:54:37.107Z,26.00
2018-09-19T16:57:04.875Z,25.90
2018-09-19T16:59:32.510Z,25.90
2018-09-19T17:04:27.816Z,25.70
2018-09-19T17:06:55.469Z,25.50
2018-09-19T17:09:23.106Z,25.50
2018-09-19T17:11:50.706Z,25.40
2018-09-19T17:16:45.890Z,25.20
2018-09-19T17:19:13.502Z,25.20
2018-09-19T17:21:41.103Z,25.10
2018-09-19T17:24:08.728Z,24.90
2018-09-19T17:26:36.363Z,24.80
2018-09-19T17:29:04.083Z,24.70
2018-09-19T17:31:31.729Z,24.70
2018-09-19T17:33:59.515Z,24.60
2018-09-19T17:36:27.119Z,24.50
2018-09-19T17:38:54.763Z,24.50
2018-09-19T17:43:49.899Z,24.40
2018-09-19T17:46:17.831Z,24.20
2018-09-19T17:48:45.684Z,24.10
2018-09-19T17:53:41.370Z,24.00
2018-09-19T18:03:33.061Z,23.60
2018-09-19T18:06:00.782Z,23.50
2018-09-19T18:10:55.916Z,23.30
2018-09-19T18:13:23.512Z,23.30
2018-09-19T18:18:18.712Z,23.30
2018-09-19T18:20:46.376Z,23.20
2018-09-19T18:23:13.999Z,23.10
2018-09-19T18:25:41.614Z,23.00
2018-09-19T18:28:09.230Z,22.90
2018-09-19T18:30:36.963Z,22.80
2018-09-19T18:33:04.622Z,22.70
2018-09-19T18:40:27.439Z,22.50
2018-09-19T18:42:55.032Z,22.50
2018-09-19T18:45:22.632Z,22.40
2018-09-19T18:50:17.737Z,22.30
2018-09-19T18:57:40.394Z,22.30
2018-09-19T19:00:08.324Z,22.20
2018-09-19T19:05:03.561Z,22.20
2018-09-19T19:14:53.778Z,21.90
2018-09-19T19:17:21.489Z,21.80
2018-09-19T19:22:16.645Z,21.90
2018-09-19T19:24:44.358Z,21.90
2018-09-19T19:27:12.219Z,21.90
2018-09-19T19:34:35.210Z,21.70
2018-09-19T19:41:58.131Z,21.60
2018-09-19T19:44:25.774Z,21.60
2018-09-19T19:46:53.452Z,21.50
2018-09-19T19:54:16.135Z,21.40
2018-09-19T19:56:43.763Z,21.40
2018-09-19T19:59:11.465Z,21.40
2018-09-19T20:04:06.742Z,21.30
2018-09-19T20:06:34.430Z,21.30
2018-09-19T20:09:02.106Z,21.30
2018-09-19T20:11:29.754Z,21.20
2018-09-19T20:13:57.458Z,21.20
2018-09-19T20:16:25.414Z,21.10
2018-09-19T20:23:48.326Z,21.20
2018-09-19T20:26:15.993Z,21.10
2018-09-19T20:31:11.199Z,20.90
2018-09-19T20:33:39.068Z,20.90
2018-09-19T20:36:06.741Z,21.00
2018-09-19T20:41:02.054Z,21.00
2018-09-19T20:45:57.575Z,21.00
2018-09-19T20:50:52.940Z,21.10
2018-09-19T20:53:20.624Z,21.10
2018-09-19T21:05:39.290Z,21.00
2018-09-19T21:15:30.146Z,21.10
2018-09-19T21:17:58.178Z,21.10
2018-09-19T21:22:53.412Z,21.20
2018-09-19T21:30:16.211Z,21.10
2018-09-19T21:35:11.532Z,21.10
2018-09-19T21:42:34.298Z,21.10
2018-09-19T21:49:57.218Z,21.20
2018-09-19T21:59:48.371Z,21.20
2018-09-19T22:04:46.159Z,21.20
2018-09-19T22:09:41.601Z,21.20
2018-09-19T22:12:10.172Z,21.20
2018-09-19T22:17:05.628Z,21.10
2018-09-19T22:22:00.923Z,20.90
2018-09-19T22:26:56.125Z,20.70
2018-09-19T22:29:23.763Z,20.60
2018-09-19T22:31:51.406Z,20.60
2018-09-19T22:46:38.105Z,20.80
2018-09-19T22:49:06.076Z,20.80
2018-09-19T22:54:01.346Z,20.90
2018-09-19T22:56:28.974Z,20.90
2018-09-19T22:58:56.643Z,20.90
2018-09-19T23:03:51.953Z,21.00
2018-09-19T23:06:19.613Z,21.00
2018-09-19T23:13:42.327Z,21.00
2018-09-19T23:16:09.960Z,20.90
2018-09-19T23:18:37.620Z,20.80
2018-09-19T23:21:05.368Z,20.80
2018-09-19T23:23:33.052Z,20.70
2018-09-19T23:26:00.718Z,20.70
2018-09-19T23:30:55.931Z,20.80
2018-09-19T23:33:23.587Z,20.80
2018-09-19T23:35:51.214Z,20.80
2018-09-19T23:40:46.407Z,20.90
2018-09-19T23:50:36.650Z,21.00
2018-09-19T23:57:59.689Z,21.10
